sensor_id;sensor_type;location;lat;lon;timestamp;P1;durP1;ratioP1;P2;durP2;ratioP2
2099;SDS011;1055;48.854;9.302;2023-03-17T00:01:45;8.75;;;5.10;;
2099;SDS011;1055;48.854;9.302;2023-03-17T00:04:18;10.20;;;5.55;;
2099;SDS011;1055;48.854;9.302;2023-03-17T00:06:46;11.85;;;5.38;;
2099;SDS011;1055;48.854;9.302;2023-03-17T00:09:13;9.97;;;5.30;;
2099;SDS011;1055;48.854;9.302;2023-03-17T00:11:40;9.75;;;5.65;;
2099;SDS011;1055;48.854;9.302;2023-03-17T00:14:07;11.50;;;5.72;;
2099;SDS011;1055;48.854;9.302;2023-03-17T00:16:34;8.57;;;4.80;;
2099;SDS011;1055;48.854;9.302;2023-03-17T00:19:03;9.98;;;5.60;;
2099;SDS011;1055;48.854;9.302;2023-03-17T00:21:30;10.32;;;5.82;;
2099;SDS011;1055;48.854;9.302;2023-03-17T00:24:02;10.65;;;5.88;;
2099;SDS011;1055;48.854;9.302;2023-03-17T00:26:28;9.25;;;5.00;;
2099;SDS011;1055;48.854;9.302;2023-03-17T00:28:54;10.03;;;5.57;;
2099;SDS011;1055;48.854;9.302;2023-03-17T00:31:22;9.23;;;5.23;;
2099;SDS011;1055;48.854;9.302;2023-03-17T00:33:52;9.13;;;5.30;;
2099;SDS011;1055;48.854;9.302;2023-03-17T00:36:20;9.73;;;5.45;;
2099;SDS011;1055;48.854;9.302;2023-03-17T00:38:48;9.02;;;5.10;;
2099;SDS011;1055;48.854;9.302;2023-03-17T00:41:15;7.95;;;4.82;;
2099;SDS011;1055;48.854;9.302;2023-03-17T00:43:41;9.57;;;5.40;;
2099;SDS011;1055;48.854;9.302;2023-03-17T00:46:17;8.35;;;4.80;;
2099;SDS011;1055;48.854;9.302;2023-03-17T00:48:47;9.10;;;5.47;;
2099;SDS011;1055;48.854;9.302;2023-03-17T00:51:15;9.52;;;5.00;;
2099;SDS011;1055;48.854;9.302;2023-03-17T00:53:41;8.95;;;4.68;;
2099;SDS011;1055;48.854;9.302;2023-03-17T00:56:14;10.48;;;5.93;;
2099;SDS011;1055;48.854;9.302;2023-03-17T00:58:43;9.13;;;4.68;;
2099;SDS011;1055;48.854;9.302;2023-03-17T01:01:10;8.85;;;4.65;;
2099;SDS011;1055;48.854;9.302;2023-03-17T01:03:36;7.90;;;4.90;;
2099;SDS011;1055;48.854;9.302;2023-03-17T01:06:03;8.57;;;4.80;;
2099;SDS011;1055;48.854;9.302;2023-03-17T01:08:32;9.32;;;4.90;;
2099;SDS011;1055;48.854;9.302;2023-03-17T01:11:06;7.70;;;4.65;;
2099;SDS011;1055;48.854;9.302;2023-03-17T01:13:40;8.60;;;4.95;;
2099;SDS011;1055;48.854;9.302;2023-03-17T01:16:08;10.95;;;5.90;;
2099;SDS011;1055;48.854;9.302;2023-03-17T01:18:35;8.50;;;5.00;;
2099;SDS011;1055;48.854;9.302;2023-03-17T01:21:01;7.90;;;4.90;;
2099;SDS011;1055;48.854;9.302;2023-03-17T01:23:30;8.90;;;5.20;;
2099;SDS011;1055;48.854;9.302;2023-03-17T01:25:59;9.02;;;5.15;;
2099;SDS011;1055;48.854;9.302;2023-03-17T01:28:25;10.13;;;4.80;;
2099;SDS011;1055;48.854;9.302;2023-03-17T01:30:53;8.85;;;4.85;;
2099;SDS011;1055;48.854;9.302;2023-03-17T01:33:20;9.77;;;5.28;;
2099;SDS011;1055;48.854;9.302;2023-03-17T01:35:46;11.57;;;5.35;;
2099;SDS011;1055;48.854;9.302;2023-03-17T01:38:14;9.55;;;4.93;;
2099;SDS011;1055;48.854;9.302;2023-03-17T01:40:44;8.07;;;4.22;;
2099;SDS011;1055;48.854;9.302;2023-03-17T01:51:31;8.95;;;4.85;;
2099;SDS011;1055;48.854;9.302;2023-03-17T01:53:59;9.20;;;4.82;;
2099;SDS011;1055;48.854;9.302;2023-03-17T01:56:27;10.00;;;4.40;;
2099;SDS011;1055;48.854;9.302;2023-03-17T01:58:54;9.10;;;5.00;;
2099;SDS011;1055;48.854;9.302;2023-03-17T02:01:26;8.25;;;4.70;;
2099;SDS011;1055;48.854;9.302;2023-03-17T02:03:57;8.15;;;4.78;;
2099;SDS011;1055;48.854;9.302;2023-03-17T02:06:23;9.95;;;4.60;;
2099;SDS011;1055;48.854;9.302;2023-03-17T02:08:50;9.60;;;5.00;;
2099;SDS011;1055;48.854;9.302;2023-03-17T02:11:16;8.50;;;4.60;;
2099;SDS011;1055;48.854;9.302;2023-03-17T02:13:46;8.85;;;4.78;;
2099;SDS011;1055;48.854;9.302;2023-03-17T02:16:15;8.15;;;4.60;;
2099;SDS011;1055;48.854;9.302;2023-03-17T02:18:42;9.30;;;5.10;;
2099;SDS011;1055;48.854;9.302;2023-03-17T02:21:30;7.78;;;4.80;;
2099;SDS011;1055;48.854;9.302;2023-03-17T02:24:04;8.27;;;4.60;;
2099;SDS011;1055;48.854;9.302;2023-03-17T02:26:41;9.07;;;5.20;;
2099;SDS011;1055;48.854;9.302;2023-03-17T02:29:10;7.95;;;4.75;;
2099;SDS011;1055;48.854;9.302;2023-03-17T02:31:36;11.18;;;5.57;;
2099;SDS011;1055;48.854;9.302;2023-03-17T02:34:02;8.50;;;5.13;;
2099;SDS011;1055;48.854;9.302;2023-03-17T02:36:31;7.70;;;4.20;;
2099;SDS011;1055;48.854;9.302;2023-03-17T02:39:04;7.38;;;4.70;;
2099;SDS011;1055;48.854;9.302;2023-03-17T02:41:30;9.40;;;4.90;;
2099;SDS011;1055;48.854;9.302;2023-03-17T02:43:56;9.27;;;4.53;;
2099;SDS011;1055;48.854;9.302;2023-03-17T02:46:22;9.60;;;4.60;;
2099;SDS011;1055;48.854;9.302;2023-03-17T02:48:48;8.50;;;5.40;;
2099;SDS011;1055;48.854;9.302;2023-03-17T02:51:14;9.60;;;5.15;;
2099;SDS011;1055;48.854;9.302;2023-03-17T02:53:40;9.37;;;5.03;;
2099;SDS011;1055;48.854;9.302;2023-03-17T02:56:06;8.73;;;5.05;;
2099;SDS011;1055;48.854;9.302;2023-03-17T02:58:33;8.98;;;5.45;;
2099;SDS011;1055;48.854;9.302;2023-03-17T03:01:02;7.90;;;4.80;;
2099;SDS011;1055;48.854;9.302;2023-03-17T03:03:28;8.98;;;5.22;;
2099;SDS011;1055;48.854;9.302;2023-03-17T03:05:57;9.35;;;4.85;;
2099;SDS011;1055;48.854;9.302;2023-03-17T03:08:29;9.40;;;5.28;;
2099;SDS011;1055;48.854;9.302;2023-03-17T03:10:55;11.38;;;5.20;;
2099;SDS011;1055;48.854;9.302;2023-03-17T03:13:24;9.10;;;4.85;;
2099;SDS011;1055;48.854;9.302;2023-03-17T03:15:50;9.30;;;5.23;;
2099;SDS011;1055;48.854;9.302;2023-03-17T03:18:22;9.23;;;4.90;;
2099;SDS011;1055;48.854;9.302;2023-03-17T03:20:47;14.05;;;6.40;;
2099;SDS011;1055;48.854;9.302;2023-03-17T03:23:14;8.82;;;4.57;;
2099;SDS011;1055;48.854;9.302;2023-03-17T03:25:40;8.48;;;4.40;;
2099;SDS011;1055;48.854;9.302;2023-03-17T03:28:09;9.43;;;5.20;;
2099;SDS011;1055;48.854;9.302;2023-03-17T03:30:38;9.02;;;5.10;;
2099;SDS011;1055;48.854;9.302;2023-03-17T03:33:05;9.00;;;4.60;;
2099;SDS011;1055;48.854;9.302;2023-03-17T03:35:32;10.23;;;5.05;;
2099;SDS011;1055;48.854;9.302;2023-03-17T03:37:58;8.77;;;5.10;;
2099;SDS011;1055;48.854;9.302;2023-03-17T03:40:27;9.38;;;4.80;;
2099;SDS011;1055;48.854;9.302;2023-03-17T03:42:55;7.80;;;4.70;;
2099;SDS011;1055;48.854;9.302;2023-03-17T03:45:23;8.48;;;4.78;;
2099;SDS011;1055;48.854;9.302;2023-03-17T03:47:54;9.85;;;5.30;;
2099;SDS011;1055;48.854;9.302;2023-03-17T03:50:33;11.13;;;4.93;;
2099;SDS011;1055;48.854;9.302;2023-03-17T03:53:04;8.93;;;4.60;;
2099;SDS011;1055;48.854;9.302;2023-03-17T03:55:32;9.05;;;5.07;;
2099;SDS011;1055;48.854;9.302;2023-03-17T03:58:04;8.07;;;4.88;;
2099;SDS011;1055;48.854;9.302;2023-03-17T04:00:37;9.93;;;5.00;;
2099;SDS011;1055;48.854;9.302;2023-03-17T04:03:04;8.82;;;4.95;;
2099;SDS011;1055;48.854;9.302;2023-03-17T04:05:30;9.60;;;4.60;;
2099;SDS011;1055;48.854;9.302;2023-03-17T04:07:55;8.10;;;5.03;;
2099;SDS011;1055;48.854;9.302;2023-03-17T04:10:21;12.60;;;5.10;;
2099;SDS011;1055;48.854;9.302;2023-03-17T04:12:47;9.30;;;5.07;;
2099;SDS011;1055;48.854;9.302;2023-03-17T04:15:14;8.40;;;4.80;;
2099;SDS011;1055;48.854;9.302;2023-03-17T04:17:44;9.23;;;4.93;;
2099;SDS011;1055;48.854;9.302;2023-03-17T04:20:10;8.23;;;4.90;;
2099;SDS011;1055;48.854;9.302;2023-03-17T04:22:38;8.65;;;5.05;;
2099;SDS011;1055;48.854;9.302;2023-03-17T04:25:06;9.27;;;4.88;;
2099;SDS011;1055;48.854;9.302;2023-03-17T04:27:33;11.48;;;4.60;;
2099;SDS011;1055;48.854;9.302;2023-03-17T04:30:00;10.00;;;5.55;;
2099;SDS011;1055;48.854;9.302;2023-03-17T04:32:26;10.20;;;5.22;;
2099;SDS011;1055;48.854;9.302;2023-03-17T04:34:55;8.93;;;5.18;;
2099;SDS011;1055;48.854;9.302;2023-03-17T04:37:22;9.65;;;5.40;;
2099;SDS011;1055;48.854;9.302;2023-03-17T04:39:51;11.85;;;5.45;;
2099;SDS011;1055;48.854;9.302;2023-03-17T04:42:17;52.67;;;11.15;;
2099;SDS011;1055;48.854;9.302;2023-03-17T04:44:43;10.33;;;5.80;;
2099;SDS011;1055;48.854;9.302;2023-03-17T04:47:09;12.30;;;6.20;;
2099;SDS011;1055;48.854;9.302;2023-03-17T04:49:37;9.13;;;5.40;;
2099;SDS011;1055;48.854;9.302;2023-03-17T04:52:03;8.50;;;5.45;;
2099;SDS011;1055;48.854;9.302;2023-03-17T04:54:29;9.40;;;5.60;;
2099;SDS011;1055;48.854;9.302;2023-03-17T04:56:55;11.10;;;5.40;;
2099;SDS011;1055;48.854;9.302;2023-03-17T04:59:21;8.57;;;4.90;;
2099;SDS011;1055;48.854;9.302;2023-03-17T05:01:47;9.17;;;4.93;;
2099;SDS011;1055;48.854;9.302;2023-03-17T05:04:12;10.10;;;5.40;;
2099;SDS011;1055;48.854;9.302;2023-03-17T05:06:38;9.67;;;5.33;;
2099;SDS011;1055;48.854;9.302;2023-03-17T05:09:04;9.88;;;4.82;;
2099;SDS011;1055;48.854;9.302;2023-03-17T05:11:30;8.77;;;5.57;;
2099;SDS011;1055;48.854;9.302;2023-03-17T05:13:56;9.73;;;5.03;;
2099;SDS011;1055;48.854;9.302;2023-03-17T05:16:22;9.80;;;4.67;;
2099;SDS011;1055;48.854;9.302;2023-03-17T05:18:48;9.50;;;5.57;;
2099;SDS011;1055;48.854;9.302;2023-03-17T05:21:13;11.00;;;5.38;;
2099;SDS011;1055;48.854;9.302;2023-03-17T05:23:39;9.60;;;5.20;;
2099;SDS011;1055;48.854;9.302;2023-03-17T05:26:05;9.10;;;4.82;;
2099;SDS011;1055;48.854;9.302;2023-03-17T05:28:31;13.20;;;4.67;;
2099;SDS011;1055;48.854;9.302;2023-03-17T05:30:57;9.30;;;5.28;;
2099;SDS011;1055;48.854;9.302;2023-03-17T05:33:23;8.40;;;5.20;;
2099;SDS011;1055;48.854;9.302;2023-03-17T05:35:49;10.00;;;4.90;;
2099;SDS011;1055;48.854;9.302;2023-03-17T05:38:15;10.70;;;5.50;;
2099;SDS011;1055;48.854;9.302;2023-03-17T05:40:41;9.73;;;5.32;;
2099;SDS011;1055;48.854;9.302;2023-03-17T05:43:07;8.98;;;5.32;;
2099;SDS011;1055;48.854;9.302;2023-03-17T05:45:33;9.90;;;5.20;;
2099;SDS011;1055;48.854;9.302;2023-03-17T05:47:59;10.00;;;5.40;;
2099;SDS011;1055;48.854;9.302;2023-03-17T05:50:25;11.07;;;5.40;;
2099;SDS011;1055;48.854;9.302;2023-03-17T05:52:51;8.93;;;5.13;;
2099;SDS011;1055;48.854;9.302;2023-03-17T05:55:17;11.43;;;5.80;;
2099;SDS011;1055;48.854;9.302;2023-03-17T05:57:43;10.25;;;6.20;;
2099;SDS011;1055;48.854;9.302;2023-03-17T06:00:10;9.50;;;5.27;;
2099;SDS011;1055;48.854;9.302;2023-03-17T06:02:37;9.88;;;5.70;;
2099;SDS011;1055;48.854;9.302;2023-03-17T06:05:04;11.32;;;5.90;;
2099;SDS011;1055;48.854;9.302;2023-03-17T06:07:32;10.77;;;5.72;;
2099;SDS011;1055;48.854;9.302;2023-03-17T06:09:58;9.87;;;6.87;;
2099;SDS011;1055;48.854;9.302;2023-03-17T06:12:24;9.27;;;5.28;;
2099;SDS011;1055;48.854;9.302;2023-03-17T06:14:50;8.80;;;5.77;;
2099;SDS011;1055;48.854;9.302;2023-03-17T06:17:16;11.07;;;6.20;;
2099;SDS011;1055;48.854;9.302;2023-03-17T06:19:42;11.82;;;8.02;;
2099;SDS011;1055;48.854;9.302;2023-03-17T06:22:07;10.10;;;5.80;;
2099;SDS011;1055;48.854;9.302;2023-03-17T06:24:33;10.07;;;6.07;;
2099;SDS011;1055;48.854;9.302;2023-03-17T06:26:59;11.63;;;6.10;;
2099;SDS011;1055;48.854;9.302;2023-03-17T06:29:25;9.27;;;5.33;;
2099;SDS011;1055;48.854;9.302;2023-03-17T06:31:52;14.82;;;7.00;;
2099;SDS011;1055;48.854;9.302;2023-03-17T06:34:19;11.30;;;6.80;;
2099;SDS011;1055;48.854;9.302;2023-03-17T06:36:46;10.57;;;5.68;;
2099;SDS011;1055;48.854;9.302;2023-03-17T06:39:12;12.93;;;5.88;;
2099;SDS011;1055;48.854;9.302;2023-03-17T06:41:39;11.70;;;8.40;;
2099;SDS011;1055;48.854;9.302;2023-03-17T06:44:05;14.47;;;6.93;;
2099;SDS011;1055;48.854;9.302;2023-03-17T06:46:32;13.40;;;6.55;;
2099;SDS011;1055;48.854;9.302;2023-03-17T06:48:59;9.57;;;6.00;;
2099;SDS011;1055;48.854;9.302;2023-03-17T06:51:25;13.60;;;6.13;;
2099;SDS011;1055;48.854;9.302;2023-03-17T06:53:51;12.67;;;6.00;;
2099;SDS011;1055;48.854;9.302;2023-03-17T06:56:16;12.73;;;6.57;;
2099;SDS011;1055;48.854;9.302;2023-03-17T06:58:42;10.63;;;5.93;;
2099;SDS011;1055;48.854;9.302;2023-03-17T07:01:09;11.85;;;7.63;;
2099;SDS011;1055;48.854;9.302;2023-03-17T07:03:36;9.68;;;5.43;;
2099;SDS011;1055;48.854;9.302;2023-03-17T07:06:01;10.93;;;6.47;;
2099;SDS011;1055;48.854;9.302;2023-03-17T07:08:27;12.57;;;6.37;;
2099;SDS011;1055;48.854;9.302;2023-03-17T07:10:55;12.90;;;6.80;;
2099;SDS011;1055;48.854;9.302;2023-03-17T07:13:21;10.52;;;6.63;;
2099;SDS011;1055;48.854;9.302;2023-03-17T07:15:48;11.25;;;6.35;;
2099;SDS011;1055;48.854;9.302;2023-03-17T07:18:14;10.57;;;6.00;;
2099;SDS011;1055;48.854;9.302;2023-03-17T07:20:41;11.10;;;6.30;;
2099;SDS011;1055;48.854;9.302;2023-03-17T07:23:10;10.85;;;6.63;;
2099;SDS011;1055;48.854;9.302;2023-03-17T07:25:39;9.95;;;6.07;;
2099;SDS011;1055;48.854;9.302;2023-03-17T07:28:07;11.25;;;7.40;;
2099;SDS011;1055;48.854;9.302;2023-03-17T07:30:33;8.85;;;5.40;;
2099;SDS011;1055;48.854;9.302;2023-03-17T07:32:59;12.80;;;6.60;;
2099;SDS011;1055;48.854;9.302;2023-03-17T07:35:25;12.60;;;5.70;;
2099;SDS011;1055;48.854;9.302;2023-03-17T07:37:52;13.57;;;6.60;;
2099;SDS011;1055;48.854;9.302;2023-03-17T07:40:18;10.10;;;6.23;;
2099;SDS011;1055;48.854;9.302;2023-03-17T07:42:43;8.97;;;5.83;;
2099;SDS011;1055;48.854;9.302;2023-03-17T07:45:09;10.27;;;6.10;;
2099;SDS011;1055;48.854;9.302;2023-03-17T07:47:35;11.18;;;6.15;;
2099;SDS011;1055;48.854;9.302;2023-03-17T07:50:01;9.50;;;6.10;;
2099;SDS011;1055;48.854;9.302;2023-03-17T07:52:27;10.27;;;6.20;;
2099;SDS011;1055;48.854;9.302;2023-03-17T07:54:52;9.40;;;5.50;;
2099;SDS011;1055;48.854;9.302;2023-03-17T07:57:19;10.88;;;6.18;;
2099;SDS011;1055;48.854;9.302;2023-03-17T07:59:46;10.60;;;5.95;;
2099;SDS011;1055;48.854;9.302;2023-03-17T08:02:14;11.10;;;5.63;;
2099;SDS011;1055;48.854;9.302;2023-03-17T08:04:41;12.52;;;6.53;;
2099;SDS011;1055;48.854;9.302;2023-03-17T08:07:07;8.95;;;5.35;;
2099;SDS011;1055;48.854;9.302;2023-03-17T08:09:34;9.10;;;5.00;;
2099;SDS011;1055;48.854;9.302;2023-03-17T08:12:01;11.95;;;5.45;;
2099;SDS011;1055;48.854;9.302;2023-03-17T08:14:27;10.25;;;5.70;;
2099;SDS011;1055;48.854;9.302;2023-03-17T08:16:53;10.10;;;5.75;;
2099;SDS011;1055;48.854;9.302;2023-03-17T08:19:19;8.30;;;5.37;;
2099;SDS011;1055;48.854;9.302;2023-03-17T08:21:46;9.50;;;5.20;;
2099;SDS011;1055;48.854;9.302;2023-03-17T08:24:12;10.80;;;4.80;;
2099;SDS011;1055;48.854;9.302;2023-03-17T08:26:38;9.37;;;4.73;;
2099;SDS011;1055;48.854;9.302;2023-03-17T08:29:04;7.40;;;4.10;;
2099;SDS011;1055;48.854;9.302;2023-03-17T08:31:29;11.30;;;4.03;;
2099;SDS011;1055;48.854;9.302;2023-03-17T08:33:55;9.50;;;4.70;;
2099;SDS011;1055;48.854;9.302;2023-03-17T08:36:21;9.17;;;4.30;;
2099;SDS011;1055;48.854;9.302;2023-03-17T08:38:48;7.90;;;4.05;;
2099;SDS011;1055;48.854;9.302;2023-03-17T08:41:15;8.55;;;4.00;;
2099;SDS011;1055;48.854;9.302;2023-03-17T08:43:43;12.32;;;4.40;;
2099;SDS011;1055;48.854;9.302;2023-03-17T08:46:14;7.45;;;3.70;;
2099;SDS011;1055;48.854;9.302;2023-03-17T08:48:42;8.18;;;4.43;;
2099;SDS011;1055;48.854;9.302;2023-03-17T08:51:09;8.27;;;3.95;;
2099;SDS011;1055;48.854;9.302;2023-03-17T08:53:35;9.25;;;4.35;;
2099;SDS011;1055;48.854;9.302;2023-03-17T08:56:01;9.50;;;4.40;;
2099;SDS011;1055;48.854;9.302;2023-03-17T08:58:28;8.30;;;4.40;;
2099;SDS011;1055;48.854;9.302;2023-03-17T09:00:57;9.30;;;4.50;;
2099;SDS011;1055;48.854;9.302;2023-03-17T09:03:24;9.15;;;3.97;;
2099;SDS011;1055;48.854;9.302;2023-03-17T09:05:50;8.45;;;4.28;;
2099;SDS011;1055;48.854;9.302;2023-03-17T09:08:16;10.63;;;4.60;;
2099;SDS011;1055;48.854;9.302;2023-03-17T09:10:42;8.97;;;4.20;;
2099;SDS011;1055;48.854;9.302;2023-03-17T09:13:08;7.80;;;4.00;;
2099;SDS011;1055;48.854;9.302;2023-03-17T09:15:34;8.85;;;4.72;;
2099;SDS011;1055;48.854;9.302;2023-03-17T09:18:00;10.50;;;3.72;;
2099;SDS011;1055;48.854;9.302;2023-03-17T09:20:27;7.03;;;3.60;;
2099;SDS011;1055;48.854;9.302;2023-03-17T09:22:52;8.70;;;3.20;;
2099;SDS011;1055;48.854;9.302;2023-03-17T09:25:18;7.17;;;3.80;;
2099;SDS011;1055;48.854;9.302;2023-03-17T09:27:44;8.30;;;3.20;;
2099;SDS011;1055;48.854;9.302;2023-03-17T09:30:10;6.50;;;2.90;;
2099;SDS011;1055;48.854;9.302;2023-03-17T09:32:37;8.23;;;3.38;;
2099;SDS011;1055;48.854;9.302;2023-03-17T09:35:04;7.80;;;3.72;;
2099;SDS011;1055;48.854;9.302;2023-03-17T09:37:30;9.53;;;3.13;;
2099;SDS011;1055;48.854;9.302;2023-03-17T09:39:56;9.37;;;3.63;;
2099;SDS011;1055;48.854;9.302;2023-03-17T09:47:57;6.60;;;3.33;;
2099;SDS011;1055;48.854;9.302;2023-03-17T09:53:30;7.93;;;3.17;;
2099;SDS011;1055;48.854;9.302;2023-03-17T09:56:20;6.33;;;2.80;;
2099;SDS011;1055;48.854;9.302;2023-03-17T09:58:55;7.77;;;3.17;;
2099;SDS011;1055;48.854;9.302;2023-03-17T10:01:23;7.17;;;3.27;;
2099;SDS011;1055;48.854;9.302;2023-03-17T10:03:49;6.47;;;3.10;;
2099;SDS011;1055;48.854;9.302;2023-03-17T10:06:18;7.90;;;3.60;;
2099;SDS011;1055;48.854;9.302;2023-03-17T10:11:39;5.77;;;2.83;;
2099;SDS011;1055;48.854;9.302;2023-03-17T10:14:10;7.40;;;3.30;;
2099;SDS011;1055;48.854;9.302;2023-03-17T10:17:00;6.60;;;3.40;;
2099;SDS011;1055;48.854;9.302;2023-03-17T10:24:53;7.67;;;3.10;;
2099;SDS011;1055;48.854;9.302;2023-03-17T10:27:26;9.00;;;3.20;;
2099;SDS011;1055;48.854;9.302;2023-03-17T10:29:55;6.50;;;3.23;;
2099;SDS011;1055;48.854;9.302;2023-03-17T10:32:21;6.93;;;2.90;;
2099;SDS011;1055;48.854;9.302;2023-03-17T10:34:46;6.73;;;3.47;;
2099;SDS011;1055;48.854;9.302;2023-03-17T10:37:14;7.80;;;2.90;;
2099;SDS011;1055;48.854;9.302;2023-03-17T10:39:48;6.50;;;2.73;;
2099;SDS011;1055;48.854;9.302;2023-03-17T10:47:22;5.47;;;2.10;;
2099;SDS011;1055;48.854;9.302;2023-03-17T10:49:55;7.10;;;2.80;;
2099;SDS011;1055;48.854;9.302;2023-03-17T10:52:27;6.27;;;2.60;;
2099;SDS011;1055;48.854;9.302;2023-03-17T10:54:55;6.50;;;2.73;;
2099;SDS011;1055;48.854;9.302;2023-03-17T10:57:26;5.77;;;2.47;;
2099;SDS011;1055;48.854;9.302;2023-03-17T10:59:53;6.80;;;2.60;;
2099;SDS011;1055;48.854;9.302;2023-03-17T11:04:53;5.53;;;2.23;;
2099;SDS011;1055;48.854;9.302;2023-03-17T11:07:27;5.73;;;2.20;;
2099;SDS011;1055;48.854;9.302;2023-03-17T11:10:00;6.37;;;1.87;;
2099;SDS011;1055;48.854;9.302;2023-03-17T11:15:02;5.70;;;2.00;;
2099;SDS011;1055;48.854;9.302;2023-03-17T11:20:21;5.77;;;2.13;;
2099;SDS011;1055;48.854;9.302;2023-03-17T11:23:01;6.10;;;1.90;;
2099;SDS011;1055;48.854;9.302;2023-03-17T11:25:46;8.17;;;2.30;;
2099;SDS011;1055;48.854;9.302;2023-03-17T11:28:20;5.20;;;2.10;;
2099;SDS011;1055;48.854;9.302;2023-03-17T11:30:50;6.03;;;1.80;;
2099;SDS011;1055;48.854;9.302;2023-03-17T11:38:57;5.30;;;1.90;;
2099;SDS011;1055;48.854;9.302;2023-03-17T11:41:36;5.73;;;2.13;;
2099;SDS011;1055;48.854;9.302;2023-03-17T11:44:35;5.70;;;2.43;;
2099;SDS011;1055;48.854;9.302;2023-03-17T11:47:31;6.17;;;2.10;;
2099;SDS011;1055;48.854;9.302;2023-03-17T11:50:03;6.10;;;2.20;;
2099;SDS011;1055;48.854;9.302;2023-03-17T11:55:22;5.87;;;1.80;;
2099;SDS011;1055;48.854;9.302;2023-03-17T11:58:02;6.27;;;2.03;;
2099;SDS011;1055;48.854;9.302;2023-03-17T12:00:35;6.30;;;2.10;;
2099;SDS011;1055;48.854;9.302;2023-03-17T12:03:13;6.17;;;2.00;;
2099;SDS011;1055;48.854;9.302;2023-03-17T12:05:41;6.00;;;2.10;;
2099;SDS011;1055;48.854;9.302;2023-03-17T12:08:53;5.33;;;1.80;;
2099;SDS011;1055;48.854;9.302;2023-03-17T12:11:05;6.50;;;2.70;;
2099;SDS011;1055;48.854;9.302;2023-03-17T12:19:31;4.80;;;1.70;;
2099;SDS011;1055;48.854;9.302;2023-03-17T12:22:08;6.83;;;2.20;;
2099;SDS011;1055;48.854;9.302;2023-03-17T12:24:46;5.33;;;1.73;;
2099;SDS011;1055;48.854;9.302;2023-03-17T12:27:29;6.27;;;2.50;;
2099;SDS011;1055;48.854;9.302;2023-03-17T12:33:03;5.17;;;1.80;;
2099;SDS011;1055;48.854;9.302;2023-03-17T12:35:46;5.87;;;2.00;;
2099;SDS011;1055;48.854;9.302;2023-03-17T12:38:15;5.30;;;1.73;;
2099;SDS011;1055;48.854;9.302;2023-03-17T12:40:51;5.20;;;1.83;;
2099;SDS011;1055;48.854;9.302;2023-03-17T12:54:32;4.80;;;1.77;;
2099;SDS011;1055;48.854;9.302;2023-03-17T12:57:02;5.20;;;1.70;;
2099;SDS011;1055;48.854;9.302;2023-03-17T12:59:38;5.20;;;1.80;;
2099;SDS011;1055;48.854;9.302;2023-03-17T13:04:52;6.90;;;2.13;;
2099;SDS011;1055;48.854;9.302;2023-03-17T13:10:19;5.77;;;2.00;;
2099;SDS011;1055;48.854;9.302;2023-03-17T13:16:01;5.77;;;2.00;;
2099;SDS011;1055;48.854;9.302;2023-03-17T13:23:34;5.00;;;1.67;;
2099;SDS011;1055;48.854;9.302;2023-03-17T13:26:10;4.90;;;1.57;;
2099;SDS011;1055;48.854;9.302;2023-03-17T13:28:44;5.27;;;1.63;;
2099;SDS011;1055;48.854;9.302;2023-03-17T13:33:54;5.83;;;1.70;;
2099;SDS011;1055;48.854;9.302;2023-03-17T13:44:48;5.20;;;1.87;;
2099;SDS011;1055;48.854;9.302;2023-03-17T13:49:47;5.30;;;1.60;;
2099;SDS011;1055;48.854;9.302;2023-03-17T13:52:31;6.60;;;1.80;;
2099;SDS011;1055;48.854;9.302;2023-03-17T14:00:32;5.23;;;1.90;;
2099;SDS011;1055;48.854;9.302;2023-03-17T14:03:04;5.07;;;1.60;;
2099;SDS011;1055;48.854;9.302;2023-03-17T14:05:39;4.97;;;1.77;;
2099;SDS011;1055;48.854;9.302;2023-03-17T14:08:15;4.87;;;1.77;;
2099;SDS011;1055;48.854;9.302;2023-03-17T14:10:42;5.60;;;1.83;;
2099;SDS011;1055;48.854;9.302;2023-03-17T14:16:13;5.47;;;1.50;;
2099;SDS011;1055;48.854;9.302;2023-03-17T14:18:47;6.37;;;1.50;;
2099;SDS011;1055;48.854;9.302;2023-03-17T14:23:59;5.40;;;1.60;;
2099;SDS011;1055;48.854;9.302;2023-03-17T14:26:28;6.73;;;1.80;;
2099;SDS011;1055;48.854;9.302;2023-03-17T14:29:00;5.57;;;1.90;;
2099;SDS011;1055;48.854;9.302;2023-03-17T14:31:28;5.50;;;1.90;;
2099;SDS011;1055;48.854;9.302;2023-03-17T14:33:55;7.97;;;2.13;;
2099;SDS011;1055;48.854;9.302;2023-03-17T14:36:23;6.10;;;1.80;;
2099;SDS011;1055;48.854;9.302;2023-03-17T14:38:52;6.47;;;2.00;;
2099;SDS011;1055;48.854;9.302;2023-03-17T14:41:20;7.50;;;2.03;;
2099;SDS011;1055;48.854;9.302;2023-03-17T14:43:51;5.53;;;1.97;;
2099;SDS011;1055;48.854;9.302;2023-03-17T14:46:21;5.90;;;1.90;;
2099;SDS011;1055;48.854;9.302;2023-03-17T14:49:35;6.63;;;2.10;;
2099;SDS011;1055;48.854;9.302;2023-03-17T14:51:40;6.80;;;1.80;;
2099;SDS011;1055;48.854;9.302;2023-03-17T14:54:11;5.70;;;1.70;;
2099;SDS011;1055;48.854;9.302;2023-03-17T14:57:01;5.50;;;1.90;;
2099;SDS011;1055;48.854;9.302;2023-03-17T14:59:37;5.40;;;1.60;;
2099;SDS011;1055;48.854;9.302;2023-03-17T15:04:57;5.83;;;1.87;;
2099;SDS011;1055;48.854;9.302;2023-03-17T15:07:44;5.30;;;2.07;;
2099;SDS011;1055;48.854;9.302;2023-03-17T15:10:14;4.83;;;1.80;;
2099;SDS011;1055;48.854;9.302;2023-03-17T15:12:45;9.10;;;2.40;;
2099;SDS011;1055;48.854;9.302;2023-03-17T15:15:24;5.20;;;1.77;;
2099;SDS011;1055;48.854;9.302;2023-03-17T15:18:12;5.43;;;2.00;;
2099;SDS011;1055;48.854;9.302;2023-03-17T15:20:45;5.37;;;1.50;;
2099;SDS011;1055;48.854;9.302;2023-03-17T15:25:49;10.37;;;2.17;;
2099;SDS011;1055;48.854;9.302;2023-03-17T15:28:20;6.23;;;2.33;;
2099;SDS011;1055;48.854;9.302;2023-03-17T15:30:49;6.73;;;2.20;;
2099;SDS011;1055;48.854;9.302;2023-03-17T15:33:19;5.87;;;2.07;;
2099;SDS011;1055;48.854;9.302;2023-03-17T15:35:46;7.83;;;1.77;;
2099;SDS011;1055;48.854;9.302;2023-03-17T15:38:12;5.93;;;2.10;;
2099;SDS011;1055;48.854;9.302;2023-03-17T15:40:38;5.70;;;2.07;;
2099;SDS011;1055;48.854;9.302;2023-03-17T15:43:04;5.57;;;2.13;;
2099;SDS011;1055;48.854;9.302;2023-03-17T15:45:29;5.47;;;2.07;;
2099;SDS011;1055;48.854;9.302;2023-03-17T15:47:55;6.57;;;2.63;;
2099;SDS011;1055;48.854;9.302;2023-03-17T15:52:53;7.63;;;2.90;;
2099;SDS011;1055;48.854;9.302;2023-03-17T15:55:24;5.80;;;1.97;;
2099;SDS011;1055;48.854;9.302;2023-03-17T15:57:54;5.50;;;1.90;;
2099;SDS011;1055;48.854;9.302;2023-03-17T16:00:24;6.80;;;2.60;;
2099;SDS011;1055;48.854;9.302;2023-03-17T16:02:53;7.13;;;2.63;;
2099;SDS011;1055;48.854;9.302;2023-03-17T16:05:31;7.50;;;3.80;;
2099;SDS011;1055;48.854;9.302;2023-03-17T16:07:58;6.87;;;3.00;;
2099;SDS011;1055;48.854;9.302;2023-03-17T16:10:30;6.63;;;3.00;;
2099;SDS011;1055;48.854;9.302;2023-03-17T16:12:56;6.40;;;2.30;;
2099;SDS011;1055;48.854;9.302;2023-03-17T16:15:25;7.00;;;2.47;;
2099;SDS011;1055;48.854;9.302;2023-03-17T16:17:56;5.40;;;2.37;;
2099;SDS011;1055;48.854;9.302;2023-03-17T16:20:25;6.67;;;2.97;;
2099;SDS011;1055;48.854;9.302;2023-03-17T16:22:52;5.80;;;2.40;;
2099;SDS011;1055;48.854;9.302;2023-03-17T16:25:23;7.43;;;2.40;;
2099;SDS011;1055;48.854;9.302;2023-03-17T16:27:52;8.80;;;2.70;;
2099;SDS011;1055;48.854;9.302;2023-03-17T16:30:20;7.60;;;3.37;;
2099;SDS011;1055;48.854;9.302;2023-03-17T16:32:52;8.50;;;4.17;;
2099;SDS011;1055;48.854;9.302;2023-03-17T16:35:20;7.20;;;3.70;;
2099;SDS011;1055;48.854;9.302;2023-03-17T16:37:47;5.90;;;2.63;;
2099;SDS011;1055;48.854;9.302;2023-03-17T16:40:19;6.70;;;2.23;;
2099;SDS011;1055;48.854;9.302;2023-03-17T16:42:46;10.20;;;3.17;;
2099;SDS011;1055;48.854;9.302;2023-03-17T16:45:13;8.20;;;4.47;;
2099;SDS011;1055;48.854;9.302;2023-03-17T16:47:42;7.87;;;3.57;;
2099;SDS011;1055;48.854;9.302;2023-03-17T16:50:18;9.50;;;3.13;;
2099;SDS011;1055;48.854;9.302;2023-03-17T16:52:45;6.13;;;2.33;;
2099;SDS011;1055;48.854;9.302;2023-03-17T16:55:11;6.70;;;2.83;;
2099;SDS011;1055;48.854;9.302;2023-03-17T16:57:38;7.00;;;3.10;;
2099;SDS011;1055;48.854;9.302;2023-03-17T17:00:06;6.33;;;2.73;;
2099;SDS011;1055;48.854;9.302;2023-03-17T17:02:32;8.60;;;3.40;;
2099;SDS011;1055;48.854;9.302;2023-03-17T17:04:58;6.63;;;3.00;;
2099;SDS011;1055;48.854;9.302;2023-03-17T17:07:26;7.13;;;2.57;;
2099;SDS011;1055;48.854;9.302;2023-03-17T17:09:52;8.87;;;3.73;;
2099;SDS011;1055;48.854;9.302;2023-03-17T17:12:17;6.90;;;3.00;;
2099;SDS011;1055;48.854;9.302;2023-03-17T17:14:43;7.00;;;3.20;;
2099;SDS011;1055;48.854;9.302;2023-03-17T17:17:09;6.40;;;2.60;;